sensor_id;sensor_type;location;lat;lon;timestamp;pressure;altitude;pressure_sealevel;temperature;humidity
41513;BME280;27244;59.940;30.280;2023-07-24T00:01:06;100242.66;;;24.52;47.52
41513;BME280;27244;59.940;30.280;2023-07-24T00:03:33;100228.38;;;24.46;47.21
41513;BME280;27244;59.940;30.280;2023-07-24T00:06:01;100229.94;;;24.47;47.40
41513;BME280;27244;59.940;30.280;2023-07-24T00:08:28;100222.56;;;24.40;47.37
41513;BME280;27244;59.940;30.280;2023-07-24T00:10:55;100234.34;;;24.48;47.29
41513;BME280;27244;59.940;30.280;2023-07-24T00:13:22;100231.03;;;24.49;47.60
41513;BME280;27244;59.940;30.280;2023-07-24T00:15:51;100230.25;;;24.49;47.23
41513;BME280;27244;59.940;30.280;2023-07-24T00:18:18;100231.53;;;24.48;47.52
41513;BME280;27244;59.940;30.280;2023-07-24T00:20:45;100216.13;;;24.40;47.32
41513;BME280;27244;59.940;30.280;2023-07-24T00:23:12;100223.19;;;24.44;47.15
41513;BME280;27244;59.940;30.280;2023-07-24T00:25:39;100216.78;;;24.44;47.28
41513;BME280;27244;59.940;30.280;2023-07-24T00:28:06;100211.44;;;24.46;47.30
41513;BME280;27244;59.940;30.280;2023-07-24T00:30:33;100217.44;;;24.48;46.33
41513;BME280;27244;59.940;30.280;2023-07-24T00:33:02;100220.25;;;24.48;46.48
41513;BME280;27244;59.940;30.280;2023-07-24T00:35:29;100219.59;;;24.44;46.17
41513;BME280;27244;59.940;30.280;2023-07-24T00:37:56;100223.50;;;24.46;46.34
41513;BME280;27244;59.940;30.280;2023-07-24T00:40:25;100208.75;;;24.42;46.26
41513;BME280;27244;59.940;30.280;2023-07-24T00:42:52;100220.84;;;24.43;47.18
41513;BME280;27244;59.940;30.280;2023-07-24T00:45:20;100196.53;;;24.36;47.13
41513;BME280;27244;59.940;30.280;2023-07-24T00:47:48;100215.84;;;24.47;46.94
41513;BME280;27244;59.940;30.280;2023-07-24T00:50:17;100213.34;;;24.49;47.34
41513;BME280;27244;59.940;30.280;2023-07-24T00:52:44;100215.06;;;24.46;47.28
41513;BME280;27244;59.940;30.280;2023-07-24T00:55:12;100215.84;;;24.47;46.96
41513;BME280;27244;59.940;30.280;2023-07-24T00:57:42;100202.34;;;24.42;46.52
41513;BME280;27244;59.940;30.280;2023-07-24T01:00:11;100194.50;;;24.37;46.80
41513;BME280;27244;59.940;30.280;2023-07-24T01:02:38;100199.50;;;24.42;46.10
41513;BME280;27244;59.940;30.280;2023-07-24T01:05:06;100205.81;;;24.46;46.10
41513;BME280;27244;59.940;30.280;2023-07-24T01:07:36;100200.31;;;24.42;46.10
41513;BME280;27244;59.940;30.280;2023-07-24T01:10:04;100188.53;;;24.35;46.03
41513;BME280;27244;59.940;30.280;2023-07-24T01:12:36;100208.19;;;24.47;46.22
41513;BME280;27244;59.940;30.280;2023-07-24T01:15:09;100207.38;;;24.47;46.26
41513;BME280;27244;59.940;30.280;2023-07-24T01:17:44;100202.53;;;24.47;46.18
41513;BME280;27244;59.940;30.280;2023-07-24T01:20:15;100211.44;;;24.46;46.27
41513;BME280;27244;59.940;30.280;2023-07-24T01:22:57;100216.16;;;24.49;46.16
41513;BME280;27244;59.940;30.280;2023-07-24T01:25:33;100204.41;;;24.41;46.48
41513;BME280;27244;59.940;30.280;2023-07-24T01:28:08;100200.16;;;24.46;46.44
41513;BME280;27244;59.940;30.280;2023-07-24T01:30:35;100200.78;;;24.41;46.25
41513;BME280;27244;59.940;30.280;2023-07-24T01:33:03;100208.75;;;24.42;46.45
41513;BME280;27244;59.940;30.280;2023-07-24T01:35:30;100198.91;;;24.38;46.34
41513;BME280;27244;59.940;30.280;2023-07-24T01:38:00;100191.53;;;24.40;46.36
41513;BME280;27244;59.940;30.280;2023-07-24T01:40:29;100194.81;;;24.39;46.40
41513;BME280;27244;59.940;30.280;2023-07-24T01:42:57;100197.19;;;24.40;46.50
41513;BME280;27244;59.940;30.280;2023-07-24T01:45:27;100191.06;;;24.42;46.28
41513;BME280;27244;59.940;30.280;2023-07-24T01:47:54;100182.88;;;24.35;46.38
41513;BME280;27244;59.940;30.280;2023-07-24T01:50:21;100186.03;;;24.37;46.22
41513;BME280;27244;59.940;30.280;2023-07-24T01:52:48;100192.00;;;24.39;46.37
41513;BME280;27244;59.940;30.280;2023-07-24T01:55:15;100189.97;;;24.39;46.22
41513;BME280;27244;59.940;30.280;2023-07-24T01:57:42;100189.97;;;24.39;46.16
41513;BME280;27244;59.940;30.280;2023-07-24T02:00:10;100179.75;;;24.33;46.37
41513;BME280;27244;59.940;30.280;2023-07-24T02:02:42;100186.34;;;24.39;46.11
41513;BME280;27244;59.940;30.280;2023-07-24T02:05:09;100175.69;;;24.34;46.40
41513;BME280;27244;59.940;30.280;2023-07-24T02:07:36;100184.47;;;24.36;46.23
41513;BME280;27244;59.940;30.280;2023-07-24T02:10:04;100171.88;;;24.28;46.00
41513;BME280;27244;59.940;30.280;2023-07-24T02:12:31;100180.84;;;24.35;46.14
41513;BME280;27244;59.940;30.280;2023-07-24T02:15:00;100157.75;;;24.19;46.13
41513;BME280;27244;59.940;30.280;2023-07-24T02:17:27;100190.88;;;24.36;45.91
41513;BME280;27244;59.940;30.280;2023-07-24T02:19:56;100178.97;;;24.32;45.76
41513;BME280;27244;59.940;30.280;2023-07-24T02:22:23;100188.06;;;24.36;45.98
41513;BME280;27244;59.940;30.280;2023-07-24T02:24:50;100184.47;;;24.36;45.88
41513;BME280;27244;59.940;30.280;2023-07-24T02:27:25;100182.16;;;24.43;45.56
41513;BME280;27244;59.940;30.280;2023-07-24T02:29:53;100175.97;;;24.27;45.90
41513;BME280;27244;59.940;30.280;2023-07-24T02:32:20;100184.47;;;24.36;45.85
41513;BME280;27244;59.940;30.280;2023-07-24T02:34:49;100187.28;;;24.36;45.60
41513;BME280;27244;59.940;30.280;2023-07-24T02:37:19;100174.13;;;24.33;45.68
41513;BME280;27244;59.940;30.280;2023-07-24T02:39:46;100178.03;;;24.35;45.96
41513;BME280;27244;59.940;30.280;2023-07-24T02:42:13;100178.81;;;24.36;46.09
41513;BME280;27244;59.940;30.280;2023-07-24T02:44:40;100167.53;;;24.27;45.74
41513;BME280;27244;59.940;30.280;2023-07-24T02:47:07;100177.53;;;24.28;45.94
41513;BME280;27244;59.940;30.280;2023-07-24T02:49:36;100177.72;;;24.33;45.83
41513;BME280;27244;59.940;30.280;2023-07-24T02:52:05;100164.69;;;24.27;45.78
41513;BME280;27244;59.940;30.280;2023-07-24T02:54:34;100173.47;;;24.29;46.08
41513;BME280;27244;59.940;30.280;2023-07-24T02:57:01;100178.50;;;24.34;45.81
41513;BME280;27244;59.940;30.280;2023-07-24T02:59:29;100167.31;;;24.21;45.78
41513;BME280;27244;59.940;30.280;2023-07-24T03:01:57;100175.03;;;24.30;46.12
41513;BME280;27244;59.940;30.280;2023-07-24T03:04:25;100179.75;;;24.33;45.99
41513;BME280;27244;59.940;30.280;2023-07-24T03:06:52;100176.63;;;24.31;46.09
41513;BME280;27244;59.940;30.280;2023-07-24T03:09:20;100165.59;;;24.24;46.06
41513;BME280;27244;59.940;30.280;2023-07-24T03:11:49;100172.38;;;24.26;45.89
41513;BME280;27244;59.940;30.280;2023-07-24T03:14:16;100182.25;;;24.31;45.97
41513;BME280;27244;59.940;30.280;2023-07-24T03:16:43;100173.47;;;24.29;46.07
41513;BME280;27244;59.940;30.280;2023-07-24T03:19:11;100173.81;;;24.31;46.02
41513;BME280;27244;59.940;30.280;2023-07-24T03:21:38;100175.84;;;24.30;46.39
41513;BME280;27244;59.940;30.280;2023-07-24T03:24:05;100176.94;;;24.33;46.35
41513;BME280;27244;59.940;30.280;2023-07-24T03:26:32;100178.97;;;24.32;46.32
41513;BME280;27244;59.940;30.280;2023-07-24T03:29:01;100178.97;;;24.32;46.25
41513;BME280;27244;59.940;30.280;2023-07-24T03:31:28;100172.09;;;24.33;46.20
41513;BME280;27244;59.940;30.280;2023-07-24T03:33:55;100164.69;;;24.27;46.10
41513;BME280;27244;59.940;30.280;2023-07-24T03:36:22;100165.59;;;24.24;46.10
41513;BME280;27244;59.940;30.280;2023-07-24T03:38:51;100178.19;;;24.32;46.28
41513;BME280;27244;59.940;30.280;2023-07-24T03:41:18;100157.63;;;24.22;45.99
41513;BME280;27244;59.940;30.280;2023-07-24T03:43:45;100176.16;;;24.32;46.17
41513;BME280;27244;59.940;30.280;2023-07-24T03:46:13;100174.91;;;24.33;46.17
41513;BME280;27244;59.940;30.280;2023-07-24T03:48:40;100171.22;;;24.24;46.10
41513;BME280;27244;59.940;30.280;2023-07-24T03:51:08;100182.25;;;24.31;45.79
41513;BME280;27244;59.940;30.280;2023-07-24T03:53:35;100174.06;;;24.24;46.24
41513;BME280;27244;59.940;30.280;2023-07-24T03:56:02;100165.59;;;24.24;46.35
41513;BME280;27244;59.940;30.280;2023-07-24T03:58:29;100172.69;;;24.28;46.13
41513;BME280;27244;59.940;30.280;2023-07-24T04:00:56;100179.44;;;24.31;46.26
41513;BME280;27244;59.940;30.280;2023-07-24T04:03:28;100171.28;;;24.33;46.38
41513;BME280;27244;59.940;30.280;2023-07-24T04:05:55;100172.53;;;24.32;46.68
41513;BME280;27244;59.940;30.280;2023-07-24T04:08:22;100173.81;;;24.31;46.80
41513;BME280;27244;59.940;30.280;2023-07-24T04:10:49;100171.00;;;24.31;46.86
41513;BME280;27244;59.940;30.280;2023-07-24T04:13:16;100169.41;;;24.30;46.60
41513;BME280;27244;59.940;30.280;2023-07-24T04:15:43;100161.53;;;24.25;46.70
41513;BME280;27244;59.940;30.280;2023-07-24T04:18:10;100160.63;;;24.28;46.70
41513;BME280;27244;59.940;30.280;2023-07-24T04:20:39;100167.81;;;24.29;46.61
41513;BME280;27244;59.940;30.280;2023-07-24T04:23:06;100172.53;;;24.32;46.67
41513;BME280;27244;59.940;30.280;2023-07-24T04:25:33;100160.09;;;24.20;46.81
41513;BME280;27244;59.940;30.280;2023-07-24T04:28:00;100179.44;;;24.31;46.60
41513;BME280;27244;59.940;30.280;2023-07-24T04:30:27;100176.63;;;24.31;46.61
41513;BME280;27244;59.940;30.280;2023-07-24T04:32:54;100166.25;;;24.28;46.79
41513;BME280;27244;59.940;30.280;2023-07-24T04:35:21;100175.50;;;24.28;46.66
41513;BME280;27244;59.940;30.280;2023-07-24T04:37:49;100172.69;;;24.28;46.74
41513;BME280;27244;59.940;30.280;2023-07-24T04:40:17;100171.88;;;24.28;47.07
41513;BME280;27244;59.940;30.280;2023-07-24T04:42:44;100177.88;;;24.30;46.76
41513;BME280;27244;59.940;30.280;2023-07-24T04:45:11;100171.88;;;24.28;46.88
41513;BME280;27244;59.940;30.280;2023-07-24T04:47:38;100173.47;;;24.29;47.04
41513;BME280;27244;59.940;30.280;2023-07-24T04:50:06;100169.41;;;24.30;46.67
41513;BME280;27244;59.940;30.280;2023-07-24T04:52:33;100166.25;;;24.28;46.88
41513;BME280;27244;59.940;30.280;2023-07-24T04:55:01;100167.38;;;24.30;46.75
41513;BME280;27244;59.940;30.280;2023-07-24T04:57:39;100162.84;;;24.33;46.76
41513;BME280;27244;59.940;30.280;2023-07-24T05:00:30;100167.69;;;24.32;46.80
41513;BME280;27244;59.940;30.280;2023-07-24T05:02:57;100171.00;;;24.31;46.54
41513;BME280;27244;59.940;30.280;2023-07-24T05:05:24;100166.13;;;24.31;46.71
41513;BME280;27244;59.940;30.280;2023-07-24T05:07:51;100146.34;;;24.22;46.50
41513;BME280;27244;59.940;30.280;2023-07-24T05:10:19;100155.63;;;24.32;46.60
41513;BME280;27244;59.940;30.280;2023-07-24T05:12:46;100158.13;;;24.30;46.94
41513;BME280;27244;59.940;30.280;2023-07-24T05:15:13;100147.66;;;24.30;46.97
41513;BME280;27244;59.940;30.280;2023-07-24T05:17:42;100141.03;;;24.24;47.03
41513;BME280;27244;59.940;30.280;2023-07-24T05:20:10;100131.16;;;24.20;47.12
41513;BME280;27244;59.940;30.280;2023-07-24T05:22:38;100141.66;;;24.28;47.40
41513;BME280;27244;59.940;30.280;2023-07-24T05:25:05;100139.66;;;24.29;47.39
41513;BME280;27244;59.940;30.280;2023-07-24T05:27:34;100142.00;;;24.30;47.15
41513;BME280;27244;59.940;30.280;2023-07-24T05:30:01;100137.28;;;24.27;47.29
41513;BME280;27244;59.940;30.280;2023-07-24T05:32:29;100142.91;;;24.27;47.78
41513;BME280;27244;59.940;30.280;2023-07-24T05:34:56;100136.81;;;24.29;47.40
41513;BME280;27244;59.940;30.280;2023-07-24T05:37:23;100126.75;;;24.19;47.36
41513;BME280;27244;59.940;30.280;2023-07-24T05:39:50;100142.00;;;24.30;47.58
41513;BME280;27244;59.940;30.280;2023-07-24T05:42:17;100136.03;;;24.28;47.73
41513;BME280;27244;59.940;30.280;2023-07-24T05:44:45;100137.47;;;24.33;47.49
41513;BME280;27244;59.940;30.280;2023-07-24T05:47:12;100128.06;;;24.27;47.47
41513;BME280;27244;59.940;30.280;2023-07-24T05:49:40;100144.03;;;24.30;47.40
41513;BME280;27244;59.940;30.280;2023-07-24T05:52:07;100136.81;;;24.29;47.53
41513;BME280;27244;59.940;30.280;2023-07-24T05:54:34;100141.53;;;24.32;47.46
41513;BME280;27244;59.940;30.280;2023-07-24T05:57:01;100138.41;;;24.30;47.73
41513;BME280;27244;59.940;30.280;2023-07-24T05:59:28;100138.72;;;24.32;47.68
41513;BME280;27244;59.940;30.280;2023-07-24T06:01:56;100119.59;;;24.27;47.64
41513;BME280;27244;59.940;30.280;2023-07-24T06:04:24;100135.91;;;24.32;47.55
41513;BME280;27244;59.940;30.280;2023-07-24T06:06:51;100129.31;;;24.26;47.52
41513;BME280;27244;59.940;30.280;2023-07-24T06:09:18;100135.91;;;24.32;47.53
41513;BME280;27244;59.940;30.280;2023-07-24T06:11:45;100133.06;;;24.32;47.66
41513;BME280;27244;59.940;30.280;2023-07-24T06:14:12;100125.56;;;24.29;47.53
41513;BME280;27244;59.940;30.280;2023-07-24T06:16:39;100126.00;;;24.27;47.80
41513;BME280;27244;59.940;30.280;2023-07-24T06:19:07;100112.97;;;24.21;47.75
41513;BME280;27244;59.940;30.280;2023-07-24T06:21:34;100127.44;;;24.32;47.56
41513;BME280;27244;59.940;30.280;2023-07-24T06:24:02;100135.91;;;24.32;47.91
41513;BME280;27244;59.940;30.280;2023-07-24T06:26:29;100117.69;;;24.24;47.84
41513;BME280;27244;59.940;30.280;2023-07-24T06:28:56;100119.09;;;24.19;47.72
41513;BME280;27244;59.940;30.280;2023-07-24T06:31:23;100128.22;;;24.32;47.62
41513;BME280;27244;59.940;30.280;2023-07-24T06:33:49;100128.22;;;24.32;47.88
41513;BME280;27244;59.940;30.280;2023-07-24T06:36:17;100124.97;;;24.34;47.87
41513;BME280;27244;59.940;30.280;2023-07-24T06:38:44;100104.38;;;24.24;48.97
41513;BME280;27244;59.940;30.280;2023-07-24T06:41:13;100126.50;;;24.35;48.69
41513;BME280;27244;59.940;30.280;2023-07-24T06:43:41;100112.06;;;24.24;48.75
41513;BME280;27244;59.940;30.280;2023-07-24T06:46:08;100119.78;;;24.32;48.53
41513;BME280;27244;59.940;30.280;2023-07-24T06:48:35;100119.47;;;24.30;48.35
41513;BME280;27244;59.940;30.280;2023-07-24T06:51:02;100121.81;;;24.32;48.10
41513;BME280;27244;59.940;30.280;2023-07-24T06:53:30;100123.38;;;24.33;48.29
41513;BME280;27244;59.940;30.280;2023-07-24T06:55:57;100117.75;;;24.33;48.10
41513;BME280;27244;59.940;30.280;2023-07-24T06:58:25;100112.88;;;24.33;48.03
41513;BME280;27244;59.940;30.280;2023-07-24T07:00:52;100106.16;;;24.31;47.77
41513;BME280;27244;59.940;30.280;2023-07-24T07:03:20;100105.81;;;24.29;47.97
41513;BME280;27244;59.940;30.280;2023-07-24T07:05:47;100109.28;;;24.33;47.71
41513;BME280;27244;59.940;30.280;2023-07-24T07:08:14;100110.06;;;24.33;47.65
41513;BME280;27244;59.940;30.280;2023-07-24T07:10:45;100112.41;;;24.35;47.74
41513;BME280;27244;59.940;30.280;2023-07-24T07:13:13;100088.25;;;24.25;47.56
41513;BME280;27244;59.940;30.280;2023-07-24T07:15:41;100096.28;;;24.26;47.66
41513;BME280;27244;59.940;30.280;2023-07-24T07:18:08;100105.22;;;24.34;48.00
41513;BME280;27244;59.940;30.280;2023-07-24T07:20:35;100109.59;;;24.35;47.88
41513;BME280;27244;59.940;30.280;2023-07-24T07:23:02;100112.75;;;24.37;48.12
41513;BME280;27244;59.940;30.280;2023-07-24T07:25:31;100108.22;;;24.39;47.68
41513;BME280;27244;59.940;30.280;2023-07-24T07:28:00;100106.19;;;24.40;47.86
41513;BME280;27244;59.940;30.280;2023-07-24T07:30:27;100108.84;;;24.43;47.92
41513;BME280;27244;59.940;30.280;2023-07-24T07:32:54;100100.69;;;24.45;47.89
41513;BME280;27244;59.940;30.280;2023-07-24T07:35:21;100101.81;;;24.48;48.14
41513;BME280;27244;59.940;30.280;2023-07-24T07:37:48;100093.31;;;24.39;47.75
41513;BME280;27244;59.940;30.280;2023-07-24T07:40:16;100100.09;;;24.50;47.97
41513;BME280;27244;59.940;30.280;2023-07-24T07:42:43;100090.69;;;24.44;48.14
41513;BME280;27244;59.940;30.280;2023-07-24T07:45:12;100103.84;;;24.47;48.33
41513;BME280;27244;59.940;30.280;2023-07-24T07:47:39;100100.25;;;24.47;48.26
41513;BME280;27244;59.940;30.280;2023-07-24T07:50:06;100106.47;;;24.42;47.92
41513;BME280;27244;59.940;30.280;2023-07-24T07:52:34;100104.31;;;24.46;47.87
41513;BME280;27244;59.940;30.280;2023-07-24T07:55:01;100104.66;;;24.48;47.96
41513;BME280;27244;59.940;30.280;2023-07-24T07:57:28;100102.63;;;24.48;48.19
41513;BME280;27244;59.940;30.280;2023-07-24T07:59:55;100105.28;;;24.52;48.02
41513;BME280;27244;59.940;30.280;2023-07-24T08:02:23;100084.06;;;24.38;48.20
41513;BME280;27244;59.940;30.280;2023-07-24T08:04:50;100103.25;;;24.53;48.26
41513;BME280;27244;59.940;30.280;2023-07-24T08:07:17;100101.53;;;24.55;48.15
41513;BME280;27244;59.940;30.280;2023-07-24T08:09:45;100105.28;;;24.52;47.83
41513;BME280;27244;59.940;30.280;2023-07-24T08:12:12;100105.59;;;24.54;48.07
41513;BME280;27244;59.940;30.280;2023-07-24T08:14:39;100103.53;;;24.45;47.71
41513;BME280;27244;59.940;30.280;2023-07-24T08:17:06;100113.91;;;24.48;48.01
41513;BME280;27244;59.940;30.280;2023-07-24T08:19:35;100120.78;;;24.57;48.14
41513;BME280;27244;59.940;30.280;2023-07-24T08:22:02;100127.22;;;24.57;47.92
41513;BME280;27244;59.940;30.280;2023-07-24T08:24:33;100118.31;;;24.59;47.62
41513;BME280;27244;59.940;30.280;2023-07-24T08:27:00;100124.41;;;24.57;47.76
41513;BME280;27244;59.940;30.280;2023-07-24T08:29:28;100119.25;;;24.56;47.59
41513;BME280;27244;59.940;30.280;2023-07-24T08:31:55;100128.50;;;24.56;47.51
41513;BME280;27244;59.940;30.280;2023-07-24T08:34:22;100107.13;;;24.46;47.61
41513;BME280;27244;59.940;30.280;2023-07-24T08:36:50;100125.97;;;24.58;47.52
41513;BME280;27244;59.940;30.280;2023-07-24T08:39:17;100130.03;;;24.57;47.68
41513;BME280;27244;59.940;30.280;2023-07-24T08:41:44;100132.06;;;24.57;47.49
41513;BME280;27244;59.940;30.280;2023-07-24T08:44:11;100138.78;;;24.50;51.54
41513;BME280;27244;59.940;30.280;2023-07-24T08:46:39;100146.03;;;24.60;51.73
41513;BME280;27244;59.940;30.280;2023-07-24T08:49:11;100129.88;;;24.61;50.62
41513;BME280;27244;59.940;30.280;2023-07-24T08:51:39;100126.75;;;24.59;50.16
41513;BME280;27244;59.940;30.280;2023-07-24T08:54:11;100131.63;;;24.67;49.38
41513;BME280;27244;59.940;30.280;2023-07-24T08:56:38;100131.00;;;24.63;49.26
41513;BME280;27244;59.940;30.280;2023-07-24T08:59:07;100123.16;;;24.58;49.14
41513;BME280;27244;59.940;30.280;2023-07-24T09:01:34;100130.22;;;24.63;48.55
41513;BME280;27244;59.940;30.280;2023-07-24T09:04:01;100129.44;;;24.62;48.48
41513;BME280;27244;59.940;30.280;2023-07-24T09:06:29;100120.03;;;24.56;48.81
41513;BME280;27244;59.940;30.280;2023-07-24T09:08:56;100129.44;;;24.62;48.90
41513;BME280;27244;59.940;30.280;2023-07-24T09:11:25;100120.78;;;24.57;48.92
41513;BME280;27244;59.940;30.280;2023-07-24T09:13:52;100129.59;;;24.59;49.14
41513;BME280;27244;59.940;30.280;2023-07-24T09:16:26;100125.97;;;24.67;48.86
41513;BME280;27244;59.940;30.280;2023-07-24T09:18:56;100131.78;;;24.64;48.93
41513;BME280;27244;59.940;30.280;2023-07-24T09:21:35;100125.38;;;24.72;48.83
41513;BME280;27244;59.940;30.280;2023-07-24T09:24:10;100114.09;;;24.63;48.76
41513;BME280;27244;59.940;30.280;2023-07-24T09:26:48;100107.34;;;24.61;49.26
41513;BME280;27244;59.940;30.280;2023-07-24T09:29:15;100120.50;;;24.64;49.69
41513;BME280;27244;59.940;30.280;2023-07-24T09:31:43;100117.66;;;24.64;49.63
41513;BME280;27244;59.940;30.280;2023-07-24T09:34:14;100119.59;;;24.67;49.47
41513;BME280;27244;59.940;30.280;2023-07-24T09:36:42;100108.75;;;24.56;49.72
41513;BME280;27244;59.940;30.280;2023-07-24T09:39:10;100103.88;;;24.57;49.54
41513;BME280;27244;59.940;30.280;2023-07-24T09:41:38;100121.44;;;24.61;49.61
41513;BME280;27244;59.940;30.280;2023-07-24T09:44:06;100131.63;;;24.67;49.75
41513;BME280;27244;59.940;30.280;2023-07-24T09:46:34;100132.56;;;24.64;49.67
41513;BME280;27244;59.940;30.280;2023-07-24T09:49:01;100119.53;;;24.58;50.34
41513;BME280;27244;59.940;30.280;2023-07-24T09:51:31;100137.28;;;24.67;50.69
41513;BME280;27244;59.940;30.280;2023-07-24T09:54:04;100130.88;;;24.67;49.92
41513;BME280;27244;59.940;30.280;2023-07-24T09:56:33;100120.47;;;24.55;49.14
41513;BME280;27244;59.940;30.280;2023-07-24T09:59:02;100135.06;;;24.62;50.52
41513;BME280;27244;59.940;30.280;2023-07-24T10:01:31;100128.78;;;24.58;49.75
41513;BME280;27244;59.940;30.280;2023-07-24T10:03:59;100134.13;;;24.65;51.08
41513;BME280;27244;59.940;30.280;2023-07-24T10:06:28;100136.97;;;24.65;51.24
41513;BME280;27244;59.940;30.280;2023-07-24T10:08:57;100132.06;;;24.57;51.48
41513;BME280;27244;59.940;30.280;2023-07-24T10:11:26;100131.16;;;24.60;51.39
41513;BME280;27244;59.940;30.280;2023-07-24T10:13:54;100131.75;;;24.55;50.89
41513;BME280;27244;59.940;30.280;2023-07-24T10:16:21;100141.50;;;24.63;51.10
41513;BME280;27244;59.940;30.280;2023-07-24T10:18:49;100133.66;;;24.58;51.12
41513;BME280;27244;59.940;30.280;2023-07-24T10:21:16;100120.28;;;24.49;51.47
41513;BME280;27244;59.940;30.280;2023-07-24T10:23:46;100146.66;;;24.64;50.64
41513;BME280;27244;59.940;30.280;2023-07-24T10:26:14;100133.19;;;24.59;50.56
41513;BME280;27244;59.940;30.280;2023-07-24T10:28:41;100128.34;;;24.60;50.11
41513;BME280;27244;59.940;30.280;2023-07-24T10:31:19;100131.63;;;24.67;49.76
41513;BME280;27244;59.940;30.280;2023-07-24T10:33:46;100125.38;;;24.63;50.14
41513;BME280;27244;59.940;30.280;2023-07-24T10:36:17;100118.94;;;24.63;49.60
41513;BME280;27244;59.940;30.280;2023-07-24T10:38:46;100098.38;;;24.44;49.20
41513;BME280;27244;59.940;30.280;2023-07-24T10:41:13;100118.16;;;24.62;49.20
41513;BME280;27244;59.940;30.280;2023-07-24T10:43:42;100118.47;;;24.64;49.55
41513;BME280;27244;59.940;30.280;2023-07-24T10:46:09;100108.75;;;24.56;49.54
41513;BME280;27244;59.940;30.280;2023-07-24T10:48:37;100116.91;;;24.63;49.46
41513;BME280;27244;59.940;30.280;2023-07-24T10:51:09;100094.00;;;24.52;49.78
41513;BME280;27244;59.940;30.280;2023-07-24T10:53:41;100106.09;;;24.62;49.49
41513;BME280;27244;59.940;30.280;2023-07-24T10:56:08;100114.09;;;24.63;49.41
41513;BME280;27244;59.940;30.280;2023-07-24T10:58:35;100108.13;;;24.61;49.53
41513;BME280;27244;59.940;30.280;2023-07-24T11:01:04;100109.22;;;24.64;49.66
41513;BME280;27244;59.940;30.280;2023-07-24T11:03:32;100102.19;;;24.59;49.54
41513;BME280;27244;59.940;30.280;2023-07-24T11:05:59;100104.38;;;24.64;49.77
41513;BME280;27244;59.940;30.280;2023-07-24T11:08:26;100102.03;;;24.63;49.73
41513;BME280;27244;59.940;30.280;2023-07-24T11:10:56;100093.41;;;24.66;49.45
41513;BME280;27244;59.940;30.280;2023-07-24T11:13:24;100091.53;;;24.63;49.60
41513;BME280;27244;59.940;30.280;2023-07-24T11:15:52;100097.94;;;24.64;49.81
41513;BME280;27244;59.940;30.280;2023-07-24T11:18:20;100094.34;;;24.63;50.11
41513;BME280;27244;59.940;30.280;2023-07-24T11:20:49;100089.47;;;24.55;49.59
41513;BME280;27244;59.940;30.280;2023-07-24T11:23:17;100102.47;;;24.61;49.76
41513;BME280;27244;59.940;30.280;2023-07-24T11:25:45;100104.38;;;24.64;49.75
41513;BME280;27244;59.940;30.280;2023-07-24T11:28:14;100099.34;;;24.68;49.66
41513;BME280;27244;59.940;30.280;2023-07-24T11:30:42;100097.94;;;24.64;49.65
41513;BME280;27244;59.940;30.280;2023-07-24T11:33:10;100088.22;;;24.65;49.52
41513;BME280;27244;59.940;30.280;2023-07-24T11:35:38;100097.03;;;24.67;49.70
41513;BME280;27244;59.940;30.280;2023-07-24T11:38:08;100092.16;;;24.67;49.51
41513;BME280;27244;59.940;30.280;2023-07-24T11:40:39;100089.81;;;24.66;49.46
41513;BME280;27244;59.940;30.280;2023-07-24T11:43:16;100099.84;;;24.76;49.33
41513;BME280;27244;59.940;30.280;2023-07-24T11:45:44;100079.91;;;24.61;49.37
41513;BME280;27244;59.940;30.280;2023-07-24T11:48:12;100080.56;;;24.65;49.52
41513;BME280;27244;59.940;30.280;2023-07-24T11:50:45;100069.88;;;24.60;49.42
41513;BME280;27244;59.940;30.280;2023-07-24T11:53:22;100074.47;;;24.67;49.34
41513;BME280;27244;59.940;30.280;2023-07-24T11:55:50;100078.53;;;24.66;49.38
41513;BME280;27244;59.940;30.280;2023-07-24T11:58:19;100084.47;;;24.68;49.39
41513;BME280;27244;59.940;30.280;2023-07-24T12:00:46;100098.13;;;24.69;49.40
41513;BME280;27244;59.940;30.280;2023-07-24T12:03:14;100087.63;;;24.70;49.11
41513;BME280;27244;59.940;30.280;2023-07-24T12:05:45;100089.97;;;24.71;49.03
41513;BME280;27244;59.940;30.280;2023-07-24T12:08:12;100092.78;;;24.71;48.95
41513;BME280;27244;59.940;30.280;2023-07-24T12:10:40;100099.69;;;24.70;49.02
41513;BME280;27244;59.940;30.280;2023-07-24T12:13:07;100078.03;;;24.58;49.16
41513;BME280;27244;59.940;30.280;2023-07-24T12:15:35;100082.28;;;24.72;48.96
41513;BME280;27244;59.940;30.280;2023-07-24T12:18:04;100066.13;;;24.54;48.81
41513;BME280;27244;59.940;30.280;2023-07-24T12:20:31;100095.28;;;24.69;48.80
41513;BME280;27244;59.940;30.280;2023-07-24T12:22:59;100092.78;;;24.71;48.79
41513;BME280;27244;59.940;30.280;2023-07-24T12:25:26;100084.00;;;24.69;48.75
41513;BME280;27244;59.940;30.280;2023-07-24T12:27:53;100070.53;;;24.64;48.90
41513;BME280;27244;59.940;30.280;2023-07-24T12:30:20;100090.75;;;24.72;48.65
41513;BME280;27244;59.940;30.280;2023-07-24T12:32:49;100068.03;;;24.66;48.52
41513;BME280;27244;59.940;30.280;2023-07-24T12:35:16;100080.72;;;24.71;48.83
41513;BME280;27244;59.940;30.280;2023-07-24T12:37:44;100093.72;;;24.68;48.87
41513;BME280;27244;59.940;30.280;2023-07-24T12:40:11;100086.50;;;24.67;48.56
41513;BME280;27244;59.940;30.280;2023-07-24T12:42:39;100085.59;;;24.70;48.60
41513;BME280;27244;59.940;30.280;2023-07-24T12:45:06;100069.28;;;24.56;48.30